首页
METAR-TAF:

METAR-TAF

机场 :

Benbecula, 苏格兰

纬度: 57-28N, 经度: 007-22W, 海拔: 6米

当前天气观测

该预报发布于27分钟前的04:50 UTC
风速26节,风向南转西南
温度 9°C
湿度 93%
气压 1005 hPa
能见度10公里或以上

METAR: EGPL 250450Z AUTO 20026KT 9999 BKN005/// OVC012/// 09/08 Q1005

时间: 05:17 (05:17 UTC)

预报

该预报发布于3小时和22分钟前的01:55 UTC
预报有效从25日的 03点(UTC)到 25日的 12点(UTC)
风速22节,风向,有时为32节阵风
能见度10公里或以上
散云层高于1000英尺
多云层高于1600英尺
短暂存在
从 25日的 03点(UTC)到 25日的 12点(UTC)
风速28节,风向南转西南,有时为42节阵风
能見度: 6000
多云层高于900英尺
小毛毛雨
几率 40% :
短暂存在
从 25日的 03点(UTC)到 25日的 08点(UTC)
能見度: 4000
多云层高于400英尺
毛毛雨, 轻雾

TAF: EGPL 250155Z 2503/2512 19022G32KT 9999 SCT010 BKN016 TEMPO 2503/2512 21028G42KT 6000 -DZ BKN009 PROB40 TEMPO 2503/2508 4000 DZ BR BKN004

超过4000个机场的气象观测和天气预报(METAR&TAF报告)。

可查询的气象台以黄色和红色小点在地图上表示。

将鼠标移到小点上方,可查看气象台名称。

然后点击查看天气观测和预报。

如需切换地图:点击带黑十字的绿色按钮放大地图;点击带横线的绿色按钮缩小地图;或者点击绿色箭头查看邻近地区的地图。


METAR-TAF: